Smithshire, Illinois
Current Conditions -  °F | °C
As of 4:53 PM on Friday 28 Nov 2014 (Local Time) from KBRL Reporting Station
Clear Clear  
Wind Chill: 32°   Ceiling: Unl
Heat Index: 37°   Visibility: 9mi
Dew Point: 31°   Wind: 7mph
Humidity: 79%   Direction: 100°E
Pressure: 29.87"   Gusts: NA
Location:  40.79°N, 90.78°W
Report Text: KBRL 282253Z AUTO 10006KT 9SM CLR 03/M01 A2987 RMK AO2 SLP123 T00281006
Loading
Personal Weather Stations






























Interactive Weather Map New forecast layout! Learn more

10-Day Weather Forecast

Advertisements
Track Severe Weather on mobile